Terminal Aerodrome Forecast
Issued by NWS

Current Version | Previous Version | Text Only | Print | Product List | Glossary On
Versions: 1 2 3 4 5 6 7 8 9 10 11 12
755
FTUS42 TJSJ 111120
TAFISX
TAF
TISX 111120Z 1112/1212 04008KT P6SM FEW030
     FM111300 11012KT P6SM FEW025 SCT050
     FM112300 07008KT P6SM FEW025=

USA.gov is the U.S. government's official web portal to all federal, state and local government web resources and services.